createdAt,value
2022-12-27T00:00:12.081Z,2.25
2022-12-27T00:02:39.224Z,1.63
2022-12-27T00:05:06.433Z,2.08
2022-12-27T00:07:33.432Z,3.35
2022-12-27T00:10:00.477Z,2.63
2022-12-27T00:12:27.654Z,3.08
2022-12-27T00:14:54.681Z,1.30
2022-12-27T00:17:21.678Z,2.08
2022-12-27T00:19:48.914Z,2.65
2022-12-27T00:22:15.927Z,1.60
2022-12-27T00:24:43.004Z,2.63
2022-12-27T00:27:10.248Z,2.33
2022-12-27T00:29:37.242Z,2.25
2022-12-27T00:32:04.269Z,2.17
2022-12-27T00:34:31.057Z,2.65
2022-12-27T00:36:58.195Z,2.42
2022-12-27T00:39:25.247Z,1.52
2022-12-27T00:41:52.452Z,1.50
2022-12-27T00:44:19.550Z,3.00
2022-12-27T00:46:46.660Z,3.15
2022-12-27T00:49:13.881Z,1.40
2022-12-27T00:51:41.011Z,2.38
2022-12-27T00:54:08.265Z,1.55
2022-12-27T00:56:35.363Z,2.55
2022-12-27T00:59:02.486Z,1.83
2022-12-27T01:01:29.836Z,2.70
2022-12-27T01:03:57.243Z,1.67
2022-12-27T01:06:24.708Z,1.45
2022-12-27T01:08:51.629Z,1.38
2022-12-27T01:11:18.632Z,1.25
2022-12-27T01:13:45.680Z,1.92
2022-12-27T01:16:12.628Z,2.53
2022-12-27T01:18:39.814Z,1.77
2022-12-27T01:21:07.326Z,2.20
2022-12-27T01:23:34.465Z,1.85
2022-12-27T01:26:01.640Z,1.90
2022-12-27T01:28:28.719Z,2.20
2022-12-27T01:30:55.681Z,1.77
2022-12-27T01:33:22.738Z,1.10
2022-12-27T01:35:49.821Z,2.80
2022-12-27T01:38:16.827Z,2.42
2022-12-27T01:40:43.936Z,1.63
2022-12-27T01:43:10.923Z,1.50
2022-12-27T01:45:37.821Z,2.05
2022-12-27T01:48:04.932Z,2.20
2022-12-27T01:50:31.996Z,2.17
2022-12-27T01:52:59.088Z,1.40
2022-12-27T01:55:25.987Z,1.73
2022-12-27T01:57:53.092Z,2.78
2022-12-27T02:00:20.181Z,1.63
2022-12-27T02:02:47.168Z,2.47
2022-12-27T02:05:14.231Z,2.60
2022-12-27T02:07:41.368Z,2.10
2022-12-27T02:10:08.376Z,2.08
2022-12-27T02:12:35.292Z,2.00
2022-12-27T02:15:03.324Z,1.48
2022-12-27T02:17:30.250Z,2.72
2022-12-27T02:19:57.172Z,1.48
2022-12-27T02:22:24.268Z,1.50
2022-12-27T02:24:51.332Z,1.73
2022-12-27T02:27:18.588Z,1.30
2022-12-27T02:29:45.596Z,1.65
2022-12-27T02:32:12.355Z,1.60
2022-12-27T02:34:39.421Z,2.30
2022-12-27T02:37:06.531Z,1.55
2022-12-27T02:39:33.524Z,1.55
2022-12-27T02:42:19.043Z,2.25
2022-12-27T02:45:04.739Z,1.45
2022-12-27T02:47:51.969Z,1.50
2022-12-27T02:50:37.329Z,1.25
2022-12-27T02:53:04.436Z,1.42
2022-12-27T02:55:31.435Z,3.28
2022-12-27T02:57:58.781Z,1.85
2022-12-27T03:00:44.494Z,2.15
2022-12-27T03:03:29.000Z,1.92
2022-12-27T03:06:14.786Z,1.70
2022-12-27T03:08:41.866Z,1.02
2022-12-27T03:11:27.452Z,1.73
2022-12-27T03:14:13.204Z,1.42
2022-12-27T03:16:41.914Z,1.88
2022-12-27T03:19:09.075Z,1.73
2022-12-27T03:22:08.697Z,2.42
2022-12-27T03:24:54.103Z,1.98
2022-12-27T03:27:21.261Z,2.45
2022-12-27T03:30:06.926Z,1.95
2022-12-27T03:32:53.124Z,1.45
2022-12-27T03:35:20.119Z,1.70
2022-12-27T03:38:06.058Z,1.42
2022-12-27T03:40:34.935Z,1.65
2022-12-27T03:43:11.316Z,2.28
2022-12-27T03:45:57.093Z,1.70
2022-12-27T03:48:24.367Z,2.40
2022-12-27T03:50:51.329Z,1.98
2022-12-27T03:53:18.450Z,2.35
2022-12-27T03:55:45.652Z,1.90
2022-12-27T03:58:12.752Z,2.63
2022-12-27T04:00:40.247Z,1.58
2022-12-27T04:03:07.462Z,1.92
2022-12-27T04:05:34.570Z,1.65
2022-12-27T04:08:20.500Z,2.33
2022-12-27T04:11:05.845Z,1.98
2022-12-27T04:13:51.314Z,2.22
2022-12-27T04:16:36.807Z,3.20
2022-12-27T04:19:22.537Z,1.75
2022-12-27T04:22:08.029Z,2.97
2022-12-27T04:24:53.506Z,2.03
2022-12-27T04:27:38.957Z,1.85
2022-12-27T04:30:24.603Z,2.97
2022-12-27T04:33:10.095Z,1.25
2022-12-27T04:35:37.163Z,3.50
2022-12-27T04:38:04.261Z,1.95
2022-12-27T04:40:49.955Z,2.65
2022-12-27T04:43:35.426Z,2.38
2022-12-27T04:46:21.007Z,1.70
2022-12-27T04:49:06.160Z,2.17
2022-12-27T04:51:51.912Z,2.20
2022-12-27T04:54:37.399Z,1.80
2022-12-27T04:57:07.240Z,1.38
2022-12-27T04:59:53.023Z,1.17
2022-12-27T05:02:20.207Z,1.77
2022-12-27T05:04:47.339Z,3.28
2022-12-27T05:07:33.081Z,1.70
2022-12-27T05:10:18.500Z,2.28
2022-12-27T05:13:04.011Z,1.20
2022-12-27T05:15:31.159Z,1.30
2022-12-27T05:17:58.239Z,2.63
2022-12-27T05:20:25.292Z,2.65
2022-12-27T05:23:10.935Z,1.55
2022-12-27T05:25:38.867Z,2.53
2022-12-27T05:28:05.924Z,1.73
2022-12-27T05:30:33.051Z,2.33
2022-12-27T05:33:00.146Z,1.50
2022-12-27T05:35:27.115Z,1.83
2022-12-27T05:37:55.198Z,2.40
2022-12-27T05:40:22.436Z,1.52
2022-12-27T05:42:49.549Z,2.15
2022-12-27T05:45:16.567Z,1.90
2022-12-27T05:47:43.724Z,2.50
2022-12-27T05:50:10.808Z,2.47
2022-12-27T05:52:41.121Z,2.08
2022-12-27T05:55:08.625Z,1.77
2022-12-27T05:57:35.704Z,2.65
2022-12-27T06:00:02.717Z,3.10
2022-12-27T06:02:29.938Z,1.92
2022-12-27T06:04:57.042Z,1.33
2022-12-27T06:07:24.814Z,3.20
2022-12-27T06:09:51.587Z,1.15
2022-12-27T06:12:18.629Z,2.03
2022-12-27T06:14:45.733Z,1.85
2022-12-27T06:17:12.786Z,2.05
2022-12-27T06:19:39.741Z,2.33
2022-12-27T06:22:06.561Z,1.70
2022-12-27T06:24:33.653Z,2.97
2022-12-27T06:27:00.787Z,1.75
2022-12-27T06:29:27.855Z,2.42
2022-12-27T06:31:55.221Z,1.30
2022-12-27T06:34:22.376Z,3.05
2022-12-27T06:36:51.731Z,1.83
2022-12-27T06:39:18.715Z,2.10
2022-12-27T06:41:45.737Z,1.73
2022-12-27T06:44:12.894Z,2.15
2022-12-27T06:46:39.914Z,1.38
2022-12-27T06:49:06.898Z,1.42
2022-12-27T06:51:34.150Z,1.33
2022-12-27T06:54:01.059Z,2.08
2022-12-27T06:56:28.146Z,1.40
2022-12-27T06:58:55.338Z,1.75
2022-12-27T07:01:22.466Z,1.88
2022-12-27T07:03:49.901Z,1.30
2022-12-27T07:06:16.929Z,1.73
2022-12-27T07:08:43.919Z,2.25
2022-12-27T07:11:10.997Z,1.70
2022-12-27T07:13:38.018Z,2.72
2022-12-27T07:16:05.576Z,3.38
2022-12-27T07:18:33.156Z,2.25
2022-12-27T07:21:00.128Z,1.80
2022-12-27T07:23:27.148Z,1.75
2022-12-27T07:25:54.301Z,2.35
2022-12-27T07:28:21.312Z,1.45
2022-12-27T07:30:48.413Z,3.95
2022-12-27T07:33:15.614Z,1.98
2022-12-27T07:35:45.212Z,2.03
2022-12-27T07:38:12.512Z,2.63
2022-12-27T07:40:39.656Z,2.45
2022-12-27T07:43:06.618Z,2.15
2022-12-27T07:45:33.813Z,1.42
2022-12-27T07:48:00.943Z,1.70
2022-12-27T07:50:28.160Z,1.98
2022-12-27T07:52:54.874Z,2.35
2022-12-27T07:55:21.482Z,2.80
2022-12-27T07:57:48.492Z,1.02
2022-12-27T08:00:15.536Z,2.33
2022-12-27T08:02:43.848Z,1.95
2022-12-27T08:05:10.873Z,3.80
2022-12-27T08:07:37.944Z,2.60
2022-12-27T08:10:05.025Z,2.15
2022-12-27T08:12:32.113Z,2.08
2022-12-27T08:14:59.302Z,2.45
2022-12-27T08:17:27.544Z,3.25
2022-12-27T08:19:54.626Z,1.80
2022-12-27T08:22:21.409Z,1.85
2022-12-27T08:24:49.182Z,2.55
2022-12-27T08:27:16.675Z,2.22
2022-12-27T08:29:43.603Z,1.77
2022-12-27T08:32:10.665Z,2.10
2022-12-27T08:34:37.773Z,2.10
2022-12-27T08:37:04.831Z,2.80
2022-12-27T08:39:32.082Z,1.98
2022-12-27T08:41:59.286Z,2.63
2022-12-27T08:44:27.716Z,2.60
2022-12-27T08:46:54.851Z,3.03
2022-12-27T08:49:21.933Z,2.42
2022-12-27T08:51:49.046Z,1.58
2022-12-27T08:54:16.699Z,2.38
2022-12-27T08:56:43.790Z,2.42
2022-12-27T08:59:10.805Z,2.38
2022-12-27T09:01:38.188Z,2.15
2022-12-27T09:04:05.354Z,1.88
2022-12-27T09:06:32.380Z,2.90
2022-12-27T09:09:00.217Z,1.45
2022-12-27T09:11:27.256Z,2.58
2022-12-27T09:13:54.333Z,2.63
2022-12-27T09:16:21.490Z,1.38
2022-12-27T09:18:48.496Z,1.67
2022-12-27T09:21:15.648Z,1.88
2022-12-27T09:23:42.711Z,1.92
2022-12-27T09:26:09.822Z,2.05
2022-12-27T09:28:36.895Z,2.38
2022-12-27T09:31:04.456Z,2.65
2022-12-27T09:33:31.533Z,1.92
2022-12-27T09:35:58.861Z,2.67
2022-12-27T09:38:25.991Z,2.95
2022-12-27T09:40:52.956Z,1.30
2022-12-27T09:43:27.195Z,3.33
2022-12-27T09:45:54.776Z,1.33
2022-12-27T09:48:24.219Z,2.05
2022-12-27T09:50:54.704Z,1.98
2022-12-27T09:53:21.672Z,2.50
2022-12-27T09:55:48.766Z,2.63
2022-12-27T09:58:15.383Z,2.35
2022-12-27T10:00:46.270Z,3.28
2022-12-27T10:03:14.046Z,2.53
2022-12-27T10:05:41.201Z,1.95
2022-12-27T10:08:08.330Z,2.47
2022-12-27T10:10:35.353Z,1.58
2022-12-27T10:13:02.649Z,2.25
2022-12-27T10:15:29.883Z,2.28
2022-12-27T10:17:56.622Z,2.65
2022-12-27T10:20:23.625Z,1.63
2022-12-27T10:22:50.784Z,1.60
2022-12-27T10:25:17.876Z,2.55
2022-12-27T10:27:45.636Z,2.03
2022-12-27T10:30:13.048Z,3.58
2022-12-27T10:32:40.012Z,1.65
2022-12-27T10:35:07.162Z,3.22
2022-12-27T10:37:34.228Z,2.28
2022-12-27T10:40:01.025Z,1.98
2022-12-27T10:42:28.057Z,1.75
2022-12-27T10:44:55.129Z,1.85
2022-12-27T10:47:22.832Z,3.25
2022-12-27T10:49:49.862Z,4.15
2022-12-27T10:52:16.855Z,2.88
2022-12-27T10:54:43.611Z,2.13
2022-12-27T10:57:10.635Z,4.55
2022-12-27T10:59:37.874Z,3.58
2022-12-27T11:02:04.778Z,3.42
2022-12-27T11:04:31.831Z,1.90
2022-12-27T11:07:01.925Z,2.70
2022-12-27T11:09:28.943Z,2.50
2022-12-27T11:11:55.974Z,2.40
2022-12-27T11:14:23.007Z,2.00
2022-12-27T11:16:50.103Z,2.10
2022-12-27T11:19:17.116Z,2.40
2022-12-27T11:21:44.110Z,2.00
2022-12-27T11:24:11.173Z,2.42
2022-12-27T11:26:38.075Z,1.85
2022-12-27T11:29:05.132Z,2.22
2022-12-27T11:31:32.197Z,2.38
2022-12-27T11:36:34.583Z,3.40
2022-12-27T11:39:01.401Z,2.08
2022-12-27T11:41:28.499Z,3.05
2022-12-27T11:43:55.568Z,3.80
2022-12-27T11:46:22.688Z,3.22
2022-12-27T11:48:50.851Z,3.30
2022-12-27T11:51:17.953Z,2.28
2022-12-27T11:53:44.548Z,2.67
2022-12-27T11:56:11.724Z,2.70
2022-12-27T11:58:38.829Z,2.70
2022-12-27T12:01:05.907Z,3.05
2022-12-27T12:03:32.855Z,3.47
2022-12-27T12:05:59.951Z,3.17
2022-12-27T12:08:27.099Z,2.95
2022-12-27T12:10:54.853Z,2.67
2022-12-27T12:13:21.953Z,3.28
2022-12-27T12:15:48.995Z,2.63
2022-12-27T12:18:16.021Z,2.85
2022-12-27T12:20:50.773Z,1.95
2022-12-27T12:23:18.253Z,3.22
2022-12-27T12:25:45.309Z,3.03
2022-12-27T12:28:38.508Z,2.13
2022-12-27T12:30:59.387Z,3.10
2022-12-27T12:33:26.373Z,3.58
2022-12-27T12:35:53.257Z,3.55
2022-12-27T12:38:19.902Z,2.47
2022-12-27T12:40:46.591Z,2.70
2022-12-27T12:43:13.719Z,3.42
2022-12-27T12:45:40.728Z,1.83
2022-12-27T12:48:07.720Z,2.13
2022-12-27T12:50:35.081Z,3.08
2022-12-27T12:53:02.238Z,2.67
2022-12-27T12:55:34.918Z,2.33
2022-12-27T12:58:06.038Z,1.95
2022-12-27T13:00:32.915Z,1.98
2022-12-27T13:03:00.011Z,2.33
2022-12-27T13:05:26.749Z,2.75
2022-12-27T13:07:53.401Z,2.45
2022-12-27T13:10:19.992Z,2.75
2022-12-27T13:12:52.385Z,3.10
2022-12-27T13:15:23.634Z,1.85
2022-12-27T13:17:50.397Z,2.22
2022-12-27T13:20:17.973Z,2.90
2022-12-27T13:22:44.739Z,2.08
2022-12-27T13:25:11.605Z,1.48
2022-12-27T13:27:38.257Z,1.77
2022-12-27T13:30:07.503Z,3.25
2022-12-27T13:32:34.396Z,2.20
2022-12-27T13:35:01.067Z,3.20
2022-12-27T13:37:27.766Z,3.38
2022-12-27T13:39:55.739Z,2.38
2022-12-27T13:42:22.945Z,2.08
2022-12-27T13:44:49.635Z,2.63
2022-12-27T13:47:16.277Z,2.42
2022-12-27T13:49:43.267Z,2.53
2022-12-27T13:52:09.908Z,2.50
2022-12-27T13:54:36.748Z,2.65
2022-12-27T13:57:05.730Z,4.63
2022-12-27T13:59:32.419Z,2.65
2022-12-27T14:01:59.240Z,3.22
2022-12-27T14:04:28.140Z,2.83
2022-12-27T14:06:54.832Z,2.60
2022-12-27T14:09:23.939Z,2.85
2022-12-27T14:11:50.664Z,4.30
2022-12-27T14:14:17.226Z,2.75
2022-12-27T14:16:43.898Z,2.75
2022-12-27T14:19:11.831Z,3.55
2022-12-27T14:21:38.809Z,2.88
2022-12-27T14:24:05.599Z,2.53
2022-12-27T14:26:33.402Z,2.63
2022-12-27T14:29:00.395Z,3.17
2022-12-27T14:31:27.259Z,2.53
2022-12-27T14:33:54.113Z,3.10
2022-12-27T14:36:20.889Z,3.67
2022-12-27T14:38:53.017Z,3.70
2022-12-27T14:41:19.750Z,3.33
2022-12-27T14:43:46.428Z,4.18
2022-12-27T14:46:13.186Z,4.38
2022-12-27T14:48:39.900Z,3.15
2022-12-27T14:51:14.897Z,3.88
2022-12-27T14:53:53.291Z,3.55
2022-12-27T14:56:20.030Z,3.38
2022-12-27T14:58:46.923Z,3.70
2022-12-27T15:01:13.754Z,3.50
2022-12-27T15:03:41.830Z,2.85
2022-12-27T15:06:08.795Z,3.85
2022-12-27T15:08:35.597Z,2.95
2022-12-27T15:11:02.271Z,3.60
2022-12-27T15:13:28.990Z,2.20
2022-12-27T15:15:58.197Z,2.60
2022-12-27T15:18:25.029Z,2.88
2022-12-27T15:20:51.768Z,2.97
2022-12-27T15:23:18.487Z,4.60
2022-12-27T15:25:45.233Z,3.97
2022-12-27T15:28:11.996Z,2.88
2022-12-27T15:30:38.809Z,2.63
2022-12-27T15:33:05.561Z,3.00
2022-12-27T15:35:32.248Z,3.03
2022-12-27T15:38:01.913Z,2.70
2022-12-27T15:40:28.659Z,3.70
2022-12-27T15:42:55.410Z,3.00
2022-12-27T15:45:22.164Z,2.95
2022-12-27T15:47:48.911Z,2.28
2022-12-27T15:50:15.582Z,2.60
2022-12-27T15:52:42.224Z,2.67
2022-12-27T15:55:08.962Z,3.47
2022-12-27T15:57:35.597Z,3.45
2022-12-27T16:00:02.407Z,3.40
2022-12-27T16:02:29.368Z,2.63
2022-12-27T16:04:56.946Z,3.22
2022-12-27T16:07:23.604Z,4.55
2022-12-27T16:09:50.470Z,2.72
2022-12-27T16:12:17.084Z,2.50
2022-12-27T16:14:43.841Z,3.08
2022-12-27T16:17:10.532Z,5.30
2022-12-27T16:19:40.743Z,3.35
2022-12-27T16:22:07.762Z,2.77
2022-12-27T16:24:34.472Z,3.65
2022-12-27T16:27:01.220Z,4.47
2022-12-27T16:29:30.433Z,2.80
2022-12-27T16:31:57.157Z,5.18
2022-12-27T16:34:24.002Z,3.95
2022-12-27T16:36:50.746Z,4.90
2022-12-27T16:39:17.365Z,4.70
2022-12-27T16:41:44.127Z,3.72
2022-12-27T16:44:10.728Z,3.38
2022-12-27T16:46:37.365Z,4.93
2022-12-27T16:49:04.004Z,4.93
2022-12-27T16:51:30.742Z,3.13
2022-12-27T16:53:57.414Z,3.70
2022-12-27T16:56:24.198Z,5.38
2022-12-27T16:58:50.795Z,4.13
2022-12-27T17:01:17.688Z,5.60
2022-12-27T17:03:44.439Z,4.07
2022-12-27T17:08:57.843Z,4.28
2022-12-27T17:11:25.177Z,5.03
2022-12-27T17:13:51.742Z,3.97
2022-12-27T17:16:20.234Z,4.82
2022-12-27T17:18:46.937Z,4.32
2022-12-27T17:21:13.946Z,4.80
2022-12-27T17:23:40.584Z,4.25
2022-12-27T17:26:07.231Z,4.63
2022-12-27T17:28:33.907Z,3.58
2022-12-27T17:31:00.539Z,4.60
2022-12-27T17:33:27.139Z,3.55
2022-12-27T17:35:53.773Z,6.15
2022-12-27T17:38:20.539Z,3.90
2022-12-27T17:40:47.134Z,3.70
2022-12-27T17:43:32.473Z,3.20
2022-12-27T17:45:59.111Z,4.00
2022-12-27T17:48:25.714Z,4.68
2022-12-27T17:50:54.726Z,4.05
2022-12-27T17:53:40.075Z,3.78
2022-12-27T17:56:25.388Z,3.97
2022-12-27T17:58:56.576Z,4.05
2022-12-27T18:01:26.495Z,4.38
2022-12-27T18:03:53.147Z,3.72
2022-12-27T18:06:19.760Z,4.60
2022-12-27T18:08:46.423Z,4.25
2022-12-27T18:11:15.480Z,4.03
2022-12-27T18:13:42.055Z,4.50
2022-12-27T18:16:08.765Z,5.05
2022-12-27T18:18:35.441Z,3.80
2022-12-27T18:21:02.410Z,4.18
2022-12-27T18:23:29.164Z,3.97
2022-12-27T18:25:55.839Z,3.55
2022-12-27T18:28:25.886Z,4.35
2022-12-27T18:30:55.474Z,4.30
2022-12-27T18:33:22.228Z,4.07
2022-12-27T18:35:48.812Z,3.05
2022-12-27T18:38:15.426Z,4.80
2022-12-27T18:40:42.027Z,3.42
2022-12-27T18:43:08.631Z,4.28
2022-12-27T18:45:35.324Z,4.18
2022-12-27T18:48:01.989Z,3.08
2022-12-27T18:50:28.725Z,3.78
2022-12-27T18:52:55.451Z,4.05
2022-12-27T18:55:23.731Z,4.50
2022-12-27T18:57:50.402Z,4.60
2022-12-27T19:00:17.254Z,3.80
2022-12-27T19:02:43.968Z,2.15
2022-12-27T19:05:10.926Z,2.92
2022-12-27T19:07:37.639Z,3.15
2022-12-27T19:10:04.343Z,2.40
2022-12-27T19:12:31.135Z,2.60
2022-12-27T19:14:58.009Z,3.83
2022-12-27T19:17:24.674Z,2.65
2022-12-27T19:19:51.648Z,4.32
2022-12-27T19:22:18.415Z,3.03
2022-12-27T19:24:45.071Z,5.05
2022-12-27T19:27:11.864Z,3.67
2022-12-27T19:29:42.673Z,4.20
2022-12-27T19:32:09.805Z,3.05
2022-12-27T19:34:36.503Z,3.42
2022-12-27T19:37:03.446Z,2.97
2022-12-27T19:39:30.085Z,2.67
2022-12-27T19:42:00.705Z,3.00
2022-12-27T19:44:28.006Z,3.10
2022-12-27T19:46:54.687Z,2.30
2022-12-27T19:49:44.452Z,4.03
2022-12-27T19:52:10.086Z,3.25
2022-12-27T19:54:36.878Z,4.78
2022-12-27T19:57:03.572Z,3.05
2022-12-27T19:59:30.278Z,3.22
2022-12-27T20:01:57.151Z,2.83
2022-12-27T20:04:24.324Z,3.70
2022-12-27T20:06:51.842Z,3.95
2022-12-27T20:09:18.500Z,4.15
2022-12-27T20:11:45.278Z,3.25
2022-12-27T20:14:13.199Z,4.38
2022-12-27T20:16:39.960Z,2.90
2022-12-27T20:19:06.707Z,3.15
2022-12-27T20:21:33.613Z,4.38
2022-12-27T20:24:00.629Z,2.55
2022-12-27T20:26:27.410Z,3.47
2022-12-27T20:28:54.192Z,3.22
2022-12-27T20:31:20.953Z,3.17
2022-12-27T20:33:47.623Z,4.25
2022-12-27T20:36:14.311Z,3.97
2022-12-27T20:38:41.041Z,2.47
2022-12-27T20:41:07.844Z,2.90
2022-12-27T20:43:34.518Z,3.08
2022-12-27T20:46:01.457Z,2.13
2022-12-27T20:48:28.116Z,2.17
2022-12-27T20:50:54.923Z,1.70
2022-12-27T20:53:21.618Z,1.55
2022-12-27T20:55:48.289Z,1.92
2022-12-27T20:58:14.928Z,2.03
2022-12-27T21:00:41.725Z,2.05
2022-12-27T21:03:08.562Z,2.40
2022-12-27T21:05:35.345Z,2.65
2022-12-27T21:08:02.017Z,1.80
2022-12-27T21:10:28.720Z,3.13
2022-12-27T21:12:55.391Z,1.83
2022-12-27T21:15:22.137Z,3.03
2022-12-27T21:17:51.693Z,1.77
2022-12-27T21:20:18.344Z,2.05
2022-12-27T21:22:45.014Z,2.70
2022-12-27T21:25:11.720Z,2.17
2022-12-27T21:27:38.382Z,3.25
2022-12-27T21:30:05.123Z,2.58
2022-12-27T21:32:31.762Z,2.88
2022-12-27T21:34:58.494Z,1.83
2022-12-27T21:37:25.225Z,1.67
2022-12-27T21:39:54.316Z,2.47
2022-12-27T21:42:20.969Z,2.38
2022-12-27T21:44:47.628Z,2.58
2022-12-27T21:47:14.355Z,2.55
2022-12-27T21:49:41.587Z,2.75
2022-12-27T21:52:08.531Z,2.88
2022-12-27T21:54:35.570Z,2.40
2022-12-27T21:57:02.948Z,2.47
2022-12-27T21:59:29.805Z,1.92
2022-12-27T22:01:56.731Z,1.85
2022-12-27T22:04:23.462Z,2.80
2022-12-27T22:06:50.205Z,2.10
2022-12-27T22:09:16.871Z,1.70
2022-12-27T22:11:43.614Z,2.15
2022-12-27T22:14:10.335Z,1.98
2022-12-27T22:16:37.017Z,2.08
2022-12-27T22:19:03.652Z,1.77
2022-12-27T22:21:30.354Z,2.08
2022-12-27T22:23:56.969Z,1.27
2022-12-27T22:26:23.593Z,1.50
2022-12-27T22:28:50.179Z,1.42
2022-12-27T22:31:16.828Z,1.92
2022-12-27T22:33:43.446Z,1.58
2022-12-27T22:36:10.062Z,1.75
2022-12-27T22:38:37.035Z,1.15
2022-12-27T22:41:03.707Z,1.55
2022-12-27T22:43:30.447Z,1.77
2022-12-27T22:45:57.051Z,1.17
2022-12-27T22:48:23.655Z,1.40
2022-12-27T22:50:50.298Z,1.13
2022-12-27T22:53:16.866Z,1.55
2022-12-27T22:55:43.510Z,1.80
2022-12-27T22:58:10.161Z,1.23
2022-12-27T23:00:36.820Z,1.00
2022-12-27T23:03:03.487Z,0.85
2022-12-27T23:05:30.154Z,1.23
2022-12-27T23:08:05.146Z,1.15
2022-12-27T23:10:33.474Z,1.27
2022-12-27T23:13:00.118Z,0.60
2022-12-27T23:15:26.768Z,0.85
2022-12-27T23:17:53.408Z,0.82
2022-12-27T23:20:20.046Z,1.02
2022-12-27T23:22:46.681Z,1.10
2022-12-27T23:25:13.286Z,0.60
2022-12-27T23:27:39.906Z,0.70
2022-12-27T23:30:06.583Z,0.70
2022-12-27T23:32:33.172Z,1.17
2022-12-27T23:34:59.790Z,0.85
2022-12-27T23:37:26.421Z,0.98
2022-12-27T23:39:53.063Z,0.90
2022-12-27T23:42:19.636Z,1.02
2022-12-27T23:44:46.281Z,0.50
2022-12-27T23:47:12.908Z,0.50
2022-12-27T23:49:39.518Z,0.50
2022-12-27T23:52:06.108Z,0.70
2022-12-27T23:54:32.739Z,1.13
2022-12-27T23:57:20.067Z,0.73
2022-12-27T23:59:45.995Z,0.60
